Cheyenne — 9HAK5 — position and weather

sailwx.info

Track history (hours):
 
Tides and Currents Weather Stations Pressure Air Temp Water Temp Dewpoint Dewpoint Depression Visibility Wind Speed Wind Dir Waves Ship Positions

Cheyenne

Last reported at 2015-Dec-30 13:31 UTC. Time now 2016-Feb-06 02:42 UTC.
Position N 44°49' E 034°58'.
Warning: this ship's position is 37 days out of date.

Length 133 m; draft 2.9 m.

Type: Cargo ship. MMSI: 249607000.

Date/timePositionNaut miles runAvg speedWind from/ knotsBaromVisibWave heightAir tempDewpointWater temp
2015-Dec-30 13:31N 44°49' E 034°58'0 0.0
2015-Dec-30 12:34N 44°49' E 034°58'0 0.0
2015-Dec-30 11:33N 44°49' E 034°58'9 0.6
2015-Dec-29 21:18N 44°43' E 034°50'6 7.7
2015-Dec-29 20:33N 44°39' E 034°44'7 7.3
2015-Dec-29 19:33N 44°34' E 034°37'7 7.2
2015-Dec-29 18:33N 44°28' E 034°30'7 7.0
2015-Dec-29 17:33N 44°23' E 034°24'8 6.9
2015-Dec-29 16:26N 44°18' E 034°16'  
2015-Dec-23 10:28N 34°30' E 032°39'6 6.2
2015-Dec-23 09:33N 34°28' E 032°45'8 6.6
2015-Dec-23 08:22N 34°24' E 032°54'7 8.0
2015-Dec-23 07:33N 34°21' E 033°01'8 8.3
2015-Dec-23 06:33N 34°18' E 033°10'  
Track history (hours):
 
Tides and Currents Weather Stations Pressure Air Temp Water Temp Dewpoint Dewpoint Depression Visibility Wind Speed Wind Dir Waves Ship Positions

Cheyenne

Last reported at 2015-Dec-30 13:31 UTC. Time now 2016-Feb-06 02:42 UTC.
Position N 44°49' E 034°58'.
Warning: this ship's position is 37 days out of date.

Length 133 m; draft 2.9 m.

Type: Cargo ship. MMSI: 249607000.

Date/timePositionNaut miles runAvg speedWind from/ knotsBaromVisibWave heightAir tempDewpointWater temp
2015-Dec-30 13:31N 44°49' E 034°58'0 0.0
2015-Dec-30 12:34N 44°49' E 034°58'0 0.0
2015-Dec-30 11:33N 44°49' E 034°58'9 0.6
2015-Dec-29 21:18N 44°43' E 034°50'6 7.7
2015-Dec-29 20:33N 44°39' E 034°44'7 7.3
2015-Dec-29 19:33N 44°34' E 034°37'7 7.2
2015-Dec-29 18:33N 44°28' E 034°30'7 7.0
2015-Dec-29 17:33N 44°23' E 034°24'8 6.9
2015-Dec-29 16:26N 44°18' E 034°16'  
2015-Dec-23 10:28N 34°30' E 032°39'6 6.2
2015-Dec-23 09:33N 34°28' E 032°45'8 6.6
2015-Dec-23 08:22N 34°24' E 032°54'7 8.0
2015-Dec-23 07:33N 34°21' E 033°01'8 8.3
2015-Dec-23 06:33N 34°18' E 033°10'  

Dump ship's entire track history